Time;durP1;ratioP1;P1;durP2;ratioP2;P2;SDS_P1;SDS_P2;PMS_P1;PMS_P2;Temp;Humidity;BMP_temperature;BMP_pressure;BME280_temperature;BME280_humidity;BME280_pressure;Samples;Min_cycle;Max_cycle;Signal;HPM_P1;HPM_P2
2023/11/23 05:32:30;;;;;;;0.10;0.10;;;12.10;89.00;;;;;;5000775;28;20508;-82
2023/11/23 05:34:55;;;;;;;0.10;0.10;;;12.10;89.30;;;;;;5018736;28;20030;-84
2023/11/23 05:37:21;;;;;;;0.10;0.10;;;12.10;89.30;;;;;;5003850;28;20077;-83
2023/11/23 05:39:47;;;;;;;0.10;0.10;;;12.20;89.30;;;;;;4981876;28;20035;-82
2023/11/23 05:42:12;;;;;;;0.10;0.10;;;12.10;89.40;;;;;;5018329;28;20052;-83
2023/11/23 05:44:39;;;;;;;0.10;0.10;;;12.10;89.40;;;;;;5019085;28;20034;-83
2023/11/23 05:47:05;;;;;;;0.10;0.10;;;12.10;89.30;;;;;;5018143;28;20033;-83
2023/11/23 05:49:30;;;;;;;0.10;0.10;;;12.10;89.40;;;;;;5018374;28;20022;-83
2023/11/23 05:51:56;;;;;;;0.10;0.10;;;12.20;89.50;;;;;;5018869;28;20018;-83
2023/11/23 05:54:21;;;;;;;0.00;0.00;;;12.20;89.30;;;;;;5000625;28;20543;-83
2023/11/23 05:56:48;;;;;;;0.10;0.10;;;12.20;89.50;;;;;;4995485;28;20018;-84
2023/11/23 05:59:13;;;;;;;0.10;0.10;;;12.10;89.60;;;;;;5018008;28;20103;-80
2023/11/23 06:01:39;;;;;;;0.10;0.10;;;12.10;89.60;;;;;;5016454;28;20033;-86
2023/11/23 06:04:05;;;;;;;0.10;0.10;;;12.20;89.80;;;;;;4998903;28;20037;-80
2023/11/23 06:06:30;;;;;;;0.10;0.10;;;12.20;89.60;;;;;;5000709;28;20037;-83
2023/11/23 06:08:56;;;;;;;0.10;0.10;;;12.20;89.60;;;;;;5001008;28;20088;-84
2023/11/23 06:11:22;;;;;;;0.10;0.10;;;12.20;89.50;;;;;;5017789;28;20018;-88
2023/11/23 06:13:48;;;;;;;0.10;0.10;;;12.20;89.60;;;;;;5013183;28;20081;-84
2023/11/23 06:16:14;;;;;;;0.10;0.10;;;12.20;89.50;;;;;;5018493;28;20022;-84
2023/11/23 06:18:40;;;;;;;0.10;0.10;;;12.30;89.50;;;;;;4999913;28;20053;-89
2023/11/23 06:21:06;;;;;;;0.10;0.10;;;12.30;89.50;;;;;;5000843;28;20462;-80
2023/11/23 06:23:32;;;;;;;0.10;0.10;;;12.20;89.50;;;;;;5018096;28;20077;-87
2023/11/23 06:25:58;;;;;;;0.10;0.10;;;12.30;89.50;;;;;;5012396;28;20481;-85
2023/11/23 06:28:26;;;;;;;0.10;0.10;;;12.30;89.40;;;;;;5009677;28;20033;-82
2023/11/23 06:30:52;;;;;;;0.10;0.10;;;12.30;89.40;;;;;;4999383;28;20536;-86
2023/11/23 06:33:18;;;;;;;0.10;0.10;;;12.30;89.50;;;;;;4999014;28;20030;-88
2023/11/23 06:35:44;;;;;;;0.10;0.10;;;12.30;89.50;;;;;;4997616;28;20046;-87
2023/11/23 06:38:09;;;;;;;0.10;0.10;;;12.20;89.50;;;;;;5010099;28;20034;-86
2023/11/23 06:40:36;;;;;;;0.10;0.10;;;12.30;89.50;;;;;;5017470;28;20034;-87
2023/11/23 06:43:02;;;;;;;0.10;0.10;;;12.30;89.40;;;;;;5003398;28;20054;-87
2023/11/23 06:45:28;;;;;;;0.00;0.00;;;12.30;89.20;;;;;;4979856;28;20474;-86
2023/11/23 06:47:54;;;;;;;0.10;0.10;;;12.30;89.20;;;;;;4979438;28;20057;-77
2023/11/23 06:50:20;;;;;;;0.10;0.10;;;12.30;89.20;;;;;;4978618;28;20030;-77
2023/11/23 06:52:46;;;;;;;0.10;0.10;;;12.30;89.30;;;;;;4979236;28;20038;-77
2023/11/23 06:55:14;;;;;;;0.10;0.10;;;12.30;89.30;;;;;;5002936;28;20109;-77
2023/11/23 06:57:46;;;;;;;0.10;0.10;;;12.30;89.40;;;;;;4999608;28;20022;-77
2023/11/23 07:00:25;;;;;;;0.10;0.10;;;12.30;89.40;;;;;;5000017;28;20026;-77
2023/11/23 07:02:52;;;;;;;0.10;0.10;;;12.30;89.30;;;;;;4998731;28;20037;-77
2023/11/23 07:05:19;;;;;;;0.10;0.10;;;12.30;89.30;;;;;;5017085;28;20056;-77
2023/11/23 07:07:47;;;;;;;0.10;0.10;;;12.30;89.10;;;;;;4998427;28;20488;-77
2023/11/23 07:10:13;;;;;;;0.10;0.10;;;12.40;89.20;;;;;;4999043;28;20049;-77
2023/11/23 07:12:44;;;;;;;0.10;0.10;;;12.30;89.20;;;;;;5017207;28;20026;-77
2023/11/23 07:15:12;;;;;;;0.10;0.10;;;12.30;89.30;;;;;;4999940;28;20080;-77
2023/11/23 07:17:38;;;;;;;0.10;0.10;;;12.30;89.20;;;;;;5016746;28;20378;-77
2023/11/23 07:20:07;;;;;;;0.10;0.10;;;12.40;89.20;;;;;;5017322;28;20773;-77
2023/11/23 07:22:35;;;;;;;0.10;0.10;;;12.40;89.30;;;;;;5016912;28;20030;-77
2023/11/23 07:25:03;;;;;;;0.10;0.10;;;12.30;89.30;;;;;;5013926;28;20030;-77
2023/11/23 07:27:29;;;;;;;0.10;0.10;;;12.40;89.30;;;;;;5016530;28;20030;-77
2023/11/23 07:29:54;;;;;;;0.10;0.10;;;12.40;89.20;;;;;;5026421;28;20028;-77
2023/11/23 07:32:21;;;;;;;0.10;0.10;;;12.40;89.20;;;;;;5007087;28;20045;-77
2023/11/23 07:34:47;;;;;;;0.10;0.10;;;12.50;89.10;;;;;;5016517;28;20036;-77
2023/11/23 07:37:13;;;;;;;0.10;0.10;;;12.50;89.10;;;;;;5017101;28;20499;-77
2023/11/23 07:39:39;;;;;;;0.10;0.10;;;12.50;89.20;;;;;;4999569;28;20416;-77
2023/11/23 07:42:05;;;;;;;0.10;0.10;;;12.40;89.20;;;;;;5016592;28;20477;-77
2023/11/23 07:44:31;;;;;;;0.10;0.10;;;12.40;89.40;;;;;;4999680;28;20026;-77
2023/11/23 07:46:59;;;;;;;0.00;0.00;;;12.40;89.30;;;;;;5017138;28;20072;-77
2023/11/23 07:49:25;;;;;;;0.10;0.10;;;12.40;89.20;;;;;;5016739;28;20052;-77
2023/11/23 07:51:51;;;;;;;0.00;0.00;;;12.50;89.20;;;;;;5016690;28;20485;-77
2023/11/23 07:54:17;;;;;;;0.10;0.10;;;12.40;89.20;;;;;;5022854;28;20112;-77
2023/11/23 07:56:43;;;;;;;0.10;0.10;;;12.40;89.30;;;;;;5023616;28;20505;-78
2023/11/23 07:59:09;;;;;;;0.10;0.10;;;12.50;89.20;;;;;;5022847;28;20429;-77
2023/11/23 08:01:35;;;;;;;0.10;0.10;;;12.50;89.20;;;;;;5022794;28;20088;-77
2023/11/23 08:04:02;;;;;;;0.10;0.10;;;12.50;89.20;;;;;;5005895;28;20030;-77
2023/11/23 08:06:28;;;;;;;0.10;0.10;;;12.50;89.10;;;;;;5005791;28;20030;-77
2023/11/23 08:08:54;;;;;;;0.10;0.10;;;12.50;89.10;;;;;;5005565;28;20076;-77
2023/11/23 08:11:21;;;;;;;0.10;0.10;;;12.60;89.20;;;;;;5022619;28;20504;-77
2023/11/23 08:13:46;;;;;;;0.10;0.10;;;12.60;89.10;;;;;;5005543;28;20026;-77
2023/11/23 08:16:12;;;;;;;0.10;0.10;;;12.60;89.00;;;;;;5023321;28;20053;-77
2023/11/23 08:18:38;;;;;;;0.10;0.10;;;12.60;88.90;;;;;;5005093;28;20492;-77
2023/11/23 08:21:04;;;;;;;0.10;0.10;;;12.60;89.00;;;;;;5004709;28;20029;-77
2023/11/23 08:23:30;;;;;;;0.10;0.10;;;12.70;88.90;;;;;;5023077;28;20556;-77
2023/11/23 08:25:56;;;;;;;0.10;0.10;;;12.70;88.80;;;;;;5004383;28;20053;-77
2023/11/23 08:28:22;;;;;;;0.08;0.08;;;12.70;88.70;;;;;;5023204;28;20541;-77
2023/11/23 08:30:48;;;;;;;0.10;0.10;;;12.80;88.60;;;;;;5026747;28;20092;-77
2023/11/23 08:33:15;;;;;;;0.10;0.10;;;12.80;88.60;;;;;;5019970;28;20424;-77
2023/11/23 08:35:41;;;;;;;0.10;0.10;;;12.80;88.60;;;;;;4986155;28;20540;-77
2023/11/23 08:38:07;;;;;;;0.10;0.10;;;12.80;88.60;;;;;;4998337;28;20034;-77
2023/11/23 08:40:32;;;;;;;0.10;0.10;;;12.80;88.60;;;;;;5022349;28;20038;-76
2023/11/23 08:42:58;;;;;;;0.10;0.10;;;12.80;88.50;;;;;;5005607;28;20068;-77
2023/11/23 08:45:24;;;;;;;0.10;0.10;;;12.80;88.40;;;;;;5004299;28;20030;-77
2023/11/23 08:47:50;;;;;;;0.10;0.10;;;12.80;88.40;;;;;;5023190;28;20026;-77
2023/11/23 08:50:17;;;;;;;0.10;0.10;;;12.80;88.20;;;;;;5022107;28;20018;-77
2023/11/23 08:52:43;;;;;;;0.10;0.10;;;12.80;88.30;;;;;;5005654;28;20029;-77
2023/11/23 08:55:09;;;;;;;0.10;0.10;;;12.90;88.40;;;;;;5005306;28;20474;-78
2023/11/23 08:57:38;;;;;;;0.08;0.08;;;12.90;88.30;;;;;;5022542;28;20024;-77
2023/11/23 09:00:10;;;;;;;0.10;0.10;;;12.90;88.30;;;;;;5001632;28;20413;-78
2023/11/23 09:02:37;;;;;;;0.10;0.10;;;13.00;88.20;;;;;;5004823;28;20030;-77
2023/11/23 09:05:05;;;;;;;0.10;0.10;;;13.10;88.10;;;;;;5019669;28;20080;-77
2023/11/23 09:07:31;;;;;;;0.10;0.10;;;13.10;88.00;;;;;;4998151;28;20081;-77
2023/11/23 09:09:57;;;;;;;0.10;0.10;;;13.10;88.00;;;;;;4998660;28;20029;-78
2023/11/23 09:12:22;;;;;;;0.10;0.10;;;13.10;88.10;;;;;;5005805;28;20029;-77
2023/11/23 09:14:49;;;;;;;0.10;0.10;;;13.10;88.10;;;;;;5002438;28;20037;-77
2023/11/23 09:17:16;;;;;;;0.10;0.10;;;13.20;88.20;;;;;;5002091;28;20021;-77
2023/11/23 09:19:41;;;;;;;0.10;0.10;;;13.20;88.00;;;;;;5015983;28;20054;-77
2023/11/23 09:22:10;;;;;;;0.10;0.10;;;13.20;87.80;;;;;;4998101;28;20023;-77
2023/11/23 09:24:35;;;;;;;0.10;0.10;;;13.20;87.80;;;;;;5000016;28;20030;-77
2023/11/23 09:27:01;;;;;;;0.10;0.10;;;13.20;87.60;;;;;;5010500;28;20386;-78
2023/11/23 09:29:26;;;;;;;0.00;0.00;;;13.20;87.50;;;;;;5024548;28;20025;-77
2023/11/23 09:31:52;;;;;;;0.10;0.10;;;13.20;87.30;;;;;;5031093;28;20108;-77
2023/11/23 09:34:18;;;;;;;0.10;0.10;;;13.30;87.30;;;;;;5018650;28;20038;-77
2023/11/23 09:36:44;;;;;;;0.10;0.10;;;13.30;87.30;;;;;;5019163;28;20022;-77
2023/11/23 09:39:14;;;;;;;0.10;0.10;;;13.30;87.20;;;;;;5001592;28;20030;-77
2023/11/23 09:41:43;;;;;;;0.10;0.10;;;13.30;87.30;;;;;;5018904;28;20028;-77
2023/11/23 09:44:09;;;;;;;0.10;0.10;;;13.30;87.30;;;;;;5014075;28;20025;-77
2023/11/23 09:46:43;;;;;;;0.10;0.10;;;13.30;86.90;;;;;;4999010;28;20041;-75
2023/11/23 09:49:11;;;;;;;0.10;0.10;;;13.30;87.10;;;;;;5017992;28;20022;-75
2023/11/23 09:51:36;;;;;;;0.00;0.00;;;13.30;87.00;;;;;;5002451;28;20030;-75
2023/11/23 09:54:03;;;;;;;0.10;0.10;;;13.30;87.10;;;;;;5017869;28;20030;-75
2023/11/23 09:56:31;;;;;;;0.10;0.10;;;13.30;87.10;;;;;;5018486;28;20029;-75
2023/11/23 09:58:56;;;;;;;0.10;0.10;;;13.30;87.00;;;;;;5007944;28;20038;-75
2023/11/23 10:01:25;;;;;;;0.10;0.10;;;13.40;87.10;;;;;;5008848;28;20580;-75
2023/11/23 10:03:54;;;;;;;0.10;0.10;;;13.40;87.00;;;;;;5000442;28;20053;-74
2023/11/23 10:06:20;;;;;;;0.10;0.10;;;13.50;86.80;;;;;;5014217;28;20026;-75
2023/11/23 10:08:46;;;;;;;0.10;0.10;;;13.40;86.60;;;;;;5016463;28;20094;-75
2023/11/23 10:11:13;;;;;;;0.10;0.10;;;13.40;86.60;;;;;;5013743;28;20049;-76
2023/11/23 10:13:38;;;;;;;0.10;0.10;;;13.40;86.60;;;;;;5012504;28;20042;-76
2023/11/23 10:16:04;;;;;;;0.10;0.10;;;13.40;86.50;;;;;;5034148;28;20226;-77
2023/11/23 10:18:43;;;;;;;0.10;0.10;;;13.50;86.60;;;;;;5007312;28;20113;-77
2023/11/23 10:21:11;;;;;;;0.10;0.10;;;13.50;86.60;;;;;;4991506;28;20098;-76
2023/11/23 10:23:38;;;;;;;0.10;0.10;;;13.50;86.10;;;;;;4987124;28;20463;-79
2023/11/23 10:26:06;;;;;;;0.10;0.10;;;13.50;86.20;;;;;;4997181;28;20027;-83
2023/11/23 10:28:31;;;;;;;0.10;0.10;;;13.50;86.20;;;;;;5010687;28;20095;-82
2023/11/23 10:31:02;;;;;;;0.10;0.10;;;13.60;86.30;;;;;;5012496;28;20042;-82
2023/11/23 10:33:30;;;;;;;0.10;0.10;;;13.60;86.20;;;;;;5016271;28;20022;-81
2023/11/23 10:35:55;;;;;;;0.10;0.10;;;13.70;86.00;;;;;;4999446;28;20030;-82
2023/11/23 10:38:23;;;;;;;0.10;0.10;;;13.70;85.80;;;;;;5006168;28;20036;-82
2023/11/23 10:40:50;;;;;;;0.10;0.10;;;13.70;85.60;;;;;;5006891;28;20026;-81
2023/11/23 10:43:17;;;;;;;0.10;0.10;;;13.70;85.50;;;;;;5002563;28;20040;-81
2023/11/23 10:45:44;;;;;;;0.10;0.10;;;13.70;85.50;;;;;;5013678;28;20129;-81
2023/11/23 10:48:14;;;;;;;0.10;0.10;;;13.70;85.30;;;;;;4998989;28;20038;-82
2023/11/23 10:50:40;;;;;;;0.10;0.10;;;13.80;85.50;;;;;;5014569;28;20033;-82
2023/11/23 10:53:08;;;;;;;0.10;0.10;;;13.90;85.40;;;;;;5031594;28;20026;-82
2023/11/23 10:55:34;;;;;;;0.10;0.10;;;13.90;85.40;;;;;;5025538;28;20488;-82
2023/11/23 10:58:09;;;;;;;0.10;0.10;;;14.00;85.40;;;;;;5015011;28;20053;-81
2023/11/23 11:00:35;;;;;;;0.10;0.10;;;14.00;84.90;;;;;;5017445;28;20026;-81
2023/11/23 11:03:05;;;;;;;0.00;0.00;;;14.10;85.00;;;;;;5016125;28;20033;-82
2023/11/23 11:05:35;;;;;;;0.10;0.10;;;14.10;84.30;;;;;;4999192;28;20393;-81
2023/11/23 11:08:07;;;;;;;0.10;0.10;;;14.10;84.60;;;;;;5017550;28;20412;-81
2023/11/23 11:10:44;;;;;;;0.17;0.10;;;14.20;84.50;;;;;;5017679;28;20441;-82
2023/11/23 11:13:26;;;;;;;0.10;0.10;;;14.10;84.40;;;;;;4998810;28;20038;-81
2023/11/23 11:15:53;;;;;;;0.10;0.10;;;14.00;84.20;;;;;;5014675;28;20493;-84
2023/11/23 11:18:23;;;;;;;0.10;0.10;;;14.00;84.60;;;;;;5015729;28;20065;-81
2023/11/23 11:21:10;;;;;;;0.10;0.10;;;14.00;84.60;;;;;;5016518;28;20061;-81
2023/11/23 11:23:51;;;;;;;0.10;0.10;;;14.20;84.60;;;;;;5017112;28;20029;-81
2023/11/23 11:26:24;;;;;;;0.10;0.10;;;14.20;84.20;;;;;;5017356;28;20547;-81
2023/11/23 11:29:01;;;;;;;0.10;0.10;;;14.20;84.00;;;;;;4998500;28;20464;-81
2023/11/23 11:31:35;;;;;;;0.10;0.10;;;14.20;84.00;;;;;;5016862;28;20046;-81
2023/11/23 11:34:02;;;;;;;0.10;0.10;;;14.20;83.90;;;;;;5016101;28;20026;-81
2023/11/23 11:36:33;;;;;;;0.10;0.10;;;14.10;83.80;;;;;;5017048;28;20030;-81
2023/11/23 11:39:00;;;;;;;0.10;0.10;;;14.20;84.10;;;;;;5016875;28;20030;-86
2023/11/23 11:41:28;;;;;;;0.00;0.00;;;14.20;84.10;;;;;;5017108;28;20026;-82
2023/11/23 11:43:56;;;;;;;0.10;0.10;;;14.20;84.10;;;;;;5016361;28;20026;-82
2023/11/23 11:46:21;;;;;;;0.08;0.08;;;14.20;83.90;;;;;;5017194;28;20044;-89
2023/11/23 11:48:47;;;;;;;0.10;0.10;;;14.20;83.80;;;;;;5016455;28;20026;-85
2023/11/23 11:51:13;;;;;;;0.10;0.10;;;14.20;84.00;;;;;;4998872;28;20022;-84
2023/11/23 11:53:40;;;;;;;0.10;0.10;;;14.20;83.80;;;;;;5016452;28;20428;-81
2023/11/23 11:56:06;;;;;;;0.00;0.00;;;14.30;83.70;;;;;;5026344;28;20022;-80
2023/11/23 11:58:32;;;;;;;0.10;0.10;;;14.30;83.90;;;;;;5017341;28;20037;-90
2023/11/23 12:00:59;;;;;;;0.10;0.10;;;14.40;83.70;;;;;;4995882;28;20026;-78
2023/11/23 12:03:25;;;;;;;0.00;0.00;;;14.40;83.50;;;;;;4999325;28;20038;-78
2023/11/23 12:05:51;;;;;;;0.10;0.10;;;14.40;83.50;;;;;;5016718;28;20026;-78
2023/11/23 12:08:16;;;;;;;0.10;0.10;;;14.40;83.20;;;;;;5015810;28;20028;-82
2023/11/23 12:10:44;;;;;;;0.00;0.00;;;14.30;83.20;;;;;;4998839;28;20405;-78
2023/11/23 12:13:14;;;;;;;0.10;0.10;;;14.30;83.40;;;;;;5016866;28;20097;-78
2023/11/23 12:15:41;;;;;;;0.10;0.10;;;14.30;83.70;;;;;;5016901;28;20489;-78
2023/11/23 12:18:08;;;;;;;0.10;0.10;;;14.30;83.50;;;;;;5015914;28;20512;-78
2023/11/23 12:20:40;;;;;;;0.10;0.10;;;14.40;83.40;;;;;;5016359;28;20110;-78
2023/11/23 12:23:07;;;;;;;0.10;0.10;;;14.40;83.50;;;;;;5016721;28;20105;-78
2023/11/23 12:25:34;;;;;;;0.10;0.10;;;14.50;83.20;;;;;;4997748;28;20136;-78
2023/11/23 12:28:08;;;;;;;0.10;0.10;;;14.40;82.90;;;;;;5016533;28;20482;-78
2023/11/23 12:30:33;;;;;;;0.10;0.10;;;14.40;83.20;;;;;;5015893;28;20101;-78
2023/11/23 12:32:59;;;;;;;0.10;0.10;;;14.30;83.20;;;;;;5016193;28;20461;-78
2023/11/23 12:35:25;;;;;;;0.10;0.10;;;14.20;83.50;;;;;;5007949;28;20077;-79
2023/11/23 12:37:51;;;;;;;0.00;0.00;;;14.30;83.60;;;;;;4996818;28;20031;-80
2023/11/23 12:40:17;;;;;;;0.10;0.10;;;14.30;83.70;;;;;;4998906;28;20041;-77
2023/11/23 12:42:43;;;;;;;0.10;0.10;;;14.30;83.60;;;;;;5020162;28;20034;-80
2023/11/23 12:45:09;;;;;;;0.10;0.10;;;14.30;83.40;;;;;;5002137;28;20366;-78
2023/11/23 12:47:38;;;;;;;0.10;0.10;;;14.30;83.20;;;;;;5019470;28;20037;-81
2023/11/23 12:50:05;;;;;;;0.10;0.10;;;14.30;83.20;;;;;;5019036;28;20045;-78
2023/11/23 12:52:33;;;;;;;0.10;0.10;;;14.30;83.10;;;;;;5020259;28;20497;-78
2023/11/23 12:55:01;;;;;;;0.00;0.00;;;14.30;83.20;;;;;;5001770;28;20568;-78
2023/11/23 12:57:27;;;;;;;0.00;0.00;;;14.30;83.30;;;;;;5030646;28;20101;-80
2023/11/23 12:59:53;;;;;;;0.10;0.10;;;14.30;83.30;;;;;;5002266;28;20056;-82
2023/11/23 13:02:18;;;;;;;0.10;0.10;;;14.30;83.50;;;;;;5019254;28;20458;-78
2023/11/23 13:04:44;;;;;;;0.05;0.05;;;14.30;83.60;;;;;;5019005;28;20073;-84
2023/11/23 13:07:10;;;;;;;0.10;0.10;;;14.30;83.50;;;;;;5002009;28;20021;-83
2023/11/23 13:09:35;;;;;;;0.00;0.00;;;14.30;83.60;;;;;;4998086;28;20026;-83
2023/11/23 13:12:03;;;;;;;0.10;0.10;;;14.20;83.70;;;;;;5000032;28;20098;-83
2023/11/23 13:14:29;;;;;;;0.00;0.00;;;14.30;83.90;;;;;;4999964;28;20015;-83
2023/11/23 13:16:56;;;;;;;0.08;0.08;;;14.30;83.80;;;;;;4984562;28;20040;-83
2023/11/23 13:19:22;;;;;;;0.05;0.05;;;14.30;83.90;;;;;;5002435;28;20022;-83
2023/11/23 13:21:49;;;;;;;0.10;0.10;;;14.20;83.40;;;;;;4999701;28;20405;-83
2023/11/23 13:24:15;;;;;;;0.10;0.10;;;14.20;83.90;;;;;;5010816;28;20033;-83
2023/11/23 13:26:42;;;;;;;0.00;0.00;;;14.30;83.80;;;;;;5019337;28;20037;-83
2023/11/23 13:29:08;;;;;;;0.10;0.10;;;14.30;83.60;;;;;;5000881;28;20034;-83
2023/11/23 13:31:35;;;;;;;0.10;0.10;;;14.30;83.60;;;;;;5019203;28;20057;-88
2023/11/23 13:34:01;;;;;;;0.10;0.10;;;14.30;83.50;;;;;;5001873;28;20092;-88
2023/11/23 13:36:28;;;;;;;0.10;0.10;;;14.30;83.60;;;;;;5001618;28;20120;-82
2023/11/23 13:38:54;;;;;;;0.10;0.10;;;14.30;83.40;;;;;;5001450;28;20497;-83
2023/11/23 13:41:21;;;;;;;0.00;0.00;;;14.30;83.40;;;;;;5018669;28;20105;-83
2023/11/23 13:43:48;;;;;;;0.10;0.10;;;14.30;83.40;;;;;;5018740;28;20161;-82
2023/11/23 13:46:14;;;;;;;0.10;0.10;;;14.20;83.30;;;;;;5019237;28;20108;-82
2023/11/23 13:48:40;;;;;;;0.10;0.10;;;14.10;83.60;;;;;;5001657;28;20842;-82
2023/11/23 13:51:06;;;;;;;0.10;0.10;;;14.20;83.80;;;;;;5000594;28;20096;-81
2023/11/23 13:53:32;;;;;;;0.00;0.00;;;14.20;83.80;;;;;;5000418;28;20026;-83
2023/11/23 13:55:58;;;;;;;0.10;0.10;;;14.20;83.80;;;;;;5027269;28;20064;-83
2023/11/23 13:58:25;;;;;;;0.10;0.10;;;14.10;83.90;;;;;;5021177;28;20038;-82
2023/11/23 14:00:52;;;;;;;0.00;0.00;;;14.10;84.00;;;;;;5000115;28;20037;-83
2023/11/23 14:03:17;;;;;;;0.10;0.10;;;14.10;84.10;;;;;;5001284;28;20029;-80
2023/11/23 14:05:43;;;;;;;0.00;0.00;;;14.00;84.00;;;;;;5018367;28;20036;-76
2023/11/23 14:08:09;;;;;;;0.10;0.10;;;14.10;84.20;;;;;;5018208;28;20030;-75
2023/11/23 14:10:35;;;;;;;0.00;0.00;;;14.10;84.20;;;;;;5018069;28;20019;-75
2023/11/23 14:13:00;;;;;;;0.10;0.10;;;14.00;83.90;;;;;;5018851;28;20408;-75
2023/11/23 14:15:26;;;;;;;0.10;0.10;;;14.00;84.20;;;;;;5000683;28;20539;-75
2023/11/23 14:17:52;;;;;;;0.10;0.10;;;14.00;84.10;;;;;;5017287;28;20500;-75
2023/11/23 14:20:18;;;;;;;0.10;0.10;;;14.00;83.80;;;;;;5018281;28;20030;-75
2023/11/23 14:22:46;;;;;;;0.00;0.00;;;14.00;83.90;;;;;;5018073;28;20400;-75
2023/11/23 14:25:16;;;;;;;0.10;0.10;;;13.90;83.90;;;;;;5018122;28;20026;-75
2023/11/23 14:27:46;;;;;;;0.10;0.10;;;13.90;84.00;;;;;;5017494;28;20021;-75
2023/11/23 14:30:12;;;;;;;0.10;0.10;;;13.90;83.90;;;;;;5018015;28;20385;-75
2023/11/23 14:32:40;;;;;;;0.00;0.00;;;13.90;83.90;;;;;;5018217;28;20099;-75
2023/11/23 14:35:06;;;;;;;0.10;0.10;;;13.90;83.90;;;;;;5015760;28;20385;-75
2023/11/23 14:37:32;;;;;;;0.10;0.10;;;13.90;84.10;;;;;;5009160;28;20037;-75
2023/11/23 14:39:57;;;;;;;0.00;0.00;;;13.80;84.10;;;;;;5002139;28;20014;-75
2023/11/23 14:42:23;;;;;;;0.10;0.10;;;13.80;84.30;;;;;;5017383;28;20033;-75
2023/11/23 14:44:49;;;;;;;0.10;0.10;;;13.90;84.30;;;;;;5017605;28;20022;-75
2023/11/23 14:47:16;;;;;;;0.10;0.10;;;13.80;84.10;;;;;;5017370;28;20029;-75
2023/11/23 14:49:42;;;;;;;0.08;0.08;;;13.80;84.60;;;;;;5017865;28;20041;-75
2023/11/23 14:52:10;;;;;;;0.10;0.10;;;13.80;84.70;;;;;;4999007;28;20022;-75
2023/11/23 14:54:36;;;;;;;0.10;0.10;;;13.80;84.80;;;;;;5017539;28;20037;-75
2023/11/23 14:57:01;;;;;;;0.00;0.00;;;13.80;84.90;;;;;;5027151;28;20022;-75
2023/11/23 14:59:27;;;;;;;0.10;0.10;;;13.80;84.90;;;;;;5017867;28;20040;-75
2023/11/23 15:01:54;;;;;;;0.10;0.10;;;13.80;85.00;;;;;;5016434;28;20041;-75
2023/11/23 15:04:20;;;;;;;0.10;0.10;;;13.80;85.10;;;;;;4999859;28;20026;-75
2023/11/23 15:06:46;;;;;;;0.03;0.03;;;13.80;85.10;;;;;;4999115;28;20030;-75
2023/11/23 15:09:11;;;;;;;0.10;0.10;;;13.70;85.30;;;;;;5017645;28;20026;-75
2023/11/23 15:11:38;;;;;;;0.10;0.10;;;13.70;85.40;;;;;;5016608;28;20021;-75
2023/11/23 15:14:04;;;;;;;0.10;0.10;;;13.70;85.50;;;;;;5017337;28;20026;-75
2023/11/23 15:16:30;;;;;;;0.10;0.10;;;13.70;85.50;;;;;;5017755;28;20026;-75
2023/11/23 15:18:56;;;;;;;0.10;0.10;;;13.70;85.60;;;;;;5017533;28;20040;-75
2023/11/23 15:21:22;;;;;;;0.10;0.10;;;13.70;85.60;;;;;;4998198;28;20029;-75
2023/11/23 15:23:48;;;;;;;0.10;0.10;;;13.70;85.60;;;;;;5017548;28;20033;-75
2023/11/23 15:26:15;;;;;;;0.10;0.10;;;13.70;85.50;;;;;;5017489;28;20545;-75
2023/11/23 15:28:40;;;;;;;0.10;0.10;;;13.50;85.50;;;;;;5017007;28;20053;-75
2023/11/23 15:31:06;;;;;;;0.10;0.10;;;13.50;85.60;;;;;;5015695;28;20045;-74
2023/11/23 15:33:33;;;;;;;0.10;0.10;;;13.50;85.30;;;;;;4999725;28;20061;-74
2023/11/23 15:36:05;;;;;;;0.10;0.10;;;13.50;85.70;;;;;;5016612;28;20026;-75
2023/11/23 15:38:32;;;;;;;0.00;0.00;;;13.50;85.80;;;;;;5016293;28;20034;-75
2023/11/23 15:40:58;;;;;;;0.10;0.10;;;13.50;85.60;;;;;;4999505;28;20032;-75
2023/11/23 15:43:23;;;;;;;0.10;0.10;;;13.50;85.50;;;;;;5016929;28;20048;-74
2023/11/23 15:45:49;;;;;;;0.10;0.10;;;13.40;85.80;;;;;;5016957;28;20033;-75
2023/11/23 15:48:15;;;;;;;0.10;0.10;;;13.40;85.80;;;;;;5016338;28;20723;-75
2023/11/23 15:50:40;;;;;;;0.10;0.10;;;13.40;86.10;;;;;;5016303;28;20036;-75
2023/11/23 15:53:06;;;;;;;0.10;0.10;;;13.40;86.10;;;;;;5017234;28;20093;-75
2023/11/23 15:55:33;;;;;;;0.10;0.10;;;13.40;86.20;;;;;;5021881;28;20021;-74
2023/11/23 15:58:02;;;;;;;0.00;0.00;;;13.40;86.00;;;;;;5004667;28;20572;-75
2023/11/23 16:00:27;;;;;;;0.10;0.10;;;13.30;86.00;;;;;;5016578;28;20030;-75
2023/11/23 16:02:53;;;;;;;0.10;0.10;;;13.30;86.20;;;;;;4998918;28;20041;-75
2023/11/23 16:05:25;;;;;;;0.00;0.00;;;13.30;86.20;;;;;;5015958;28;20030;-74
2023/11/23 16:07:52;;;;;;;0.10;0.10;;;13.40;86.20;;;;;;4999127;28;20034;-75
2023/11/23 16:10:18;;;;;;;0.10;0.10;;;13.40;86.10;;;;;;5016701;28;20108;-74
2023/11/23 16:12:46;;;;;;;0.10;0.10;;;13.50;86.20;;;;;;5016934;28;20025;-75
2023/11/23 16:15:11;;;;;;;0.10;0.10;;;13.50;86.10;;;;;;4999139;28;20030;-75
2023/11/23 16:17:38;;;;;;;0.00;0.00;;;13.40;86.10;;;;;;5000325;28;20033;-74
2023/11/23 16:20:10;;;;;;;0.03;0.03;;;13.40;86.10;;;;;;5012322;28;20026;-74
2023/11/23 16:22:36;;;;;;;0.10;0.10;;;13.40;86.10;;;;;;5019796;28;20033;-75
2023/11/23 16:25:06;;;;;;;0.10;0.10;;;13.30;86.20;;;;;;5020343;28;20348;-75
2023/11/23 16:27:32;;;;;;;0.10;0.10;;;13.30;86.20;;;;;;4989377;28;20026;-75
2023/11/23 16:29:58;;;;;;;0.10;0.10;;;13.30;86.20;;;;;;5020562;28;20033;-75
2023/11/23 16:32:23;;;;;;;0.00;0.00;;;13.30;86.30;;;;;;5020027;28;20050;-75
2023/11/23 16:34:49;;;;;;;0.10;0.10;;;13.30;86.30;;;;;;5019762;28;20057;-74
2023/11/23 16:37:15;;;;;;;0.10;0.10;;;13.30;86.40;;;;;;5019877;28;20080;-75
2023/11/23 16:39:41;;;;;;;0.20;0.10;;;13.30;86.50;;;;;;5020282;28;20030;-75
2023/11/23 16:42:07;;;;;;;0.10;0.10;;;13.30;86.40;;;;;;5008786;28;20038;-74
2023/11/23 16:44:32;;;;;;;0.10;0.10;;;13.20;86.30;;;;;;5000255;28;20478;-74
2023/11/23 16:46:58;;;;;;;0.10;0.10;;;13.20;86.40;;;;;;5008135;28;20096;-75
2023/11/23 16:49:23;;;;;;;0.10;0.10;;;13.20;86.50;;;;;;5020158;28;20026;-74
2023/11/23 16:51:49;;;;;;;0.05;0.05;;;13.20;86.40;;;;;;5019728;28;20386;-75
2023/11/23 16:54:19;;;;;;;0.10;0.10;;;13.20;86.50;;;;;;5020096;28;20077;-75
2023/11/23 16:56:45;;;;;;;0.10;0.10;;;13.20;86.30;;;;;;5022966;28;20486;-75
2023/11/23 16:59:11;;;;;;;0.08;0.08;;;13.20;86.40;;;;;;5019845;28;20050;-75
2023/11/23 17:01:37;;;;;;;0.10;0.10;;;13.10;86.30;;;;;;5019188;28;20041;-75
2023/11/23 17:04:03;;;;;;;0.10;0.10;;;13.00;86.10;;;;;;5017122;28;20030;-74
2023/11/23 17:06:29;;;;;;;0.03;0.03;;;13.00;86.10;;;;;;5019253;28;20053;-75
2023/11/23 17:08:55;;;;;;;0.10;0.10;;;13.00;85.90;;;;;;5019287;28;20041;-75
2023/11/23 17:11:21;;;;;;;0.10;0.10;;;13.00;85.90;;;;;;5019582;28;20109;-73
2023/11/23 17:13:47;;;;;;;0.00;0.00;;;13.00;85.90;;;;;;5018545;28;20068;-73
2023/11/23 17:16:13;;;;;;;0.10;0.10;;;12.90;86.00;;;;;;5019876;28;20022;-74
2023/11/23 17:18:39;;;;;;;0.10;0.10;;;12.90;85.90;;;;;;5019190;28;20053;-76
2023/11/23 17:21:05;;;;;;;0.10;0.10;;;12.90;85.90;;;;;;5019698;28;20101;-74
2023/11/23 17:23:33;;;;;;;0.10;0.10;;;12.90;85.80;;;;;;5018745;28;20052;-74
2023/11/23 17:25:59;;;;;;;0.10;0.10;;;13.00;85.80;;;;;;5018607;28;20033;-74
2023/11/23 17:28:24;;;;;;;0.10;0.10;;;12.90;85.80;;;;;;5018830;28;20030;-74
2023/11/23 17:30:50;;;;;;;0.10;0.10;;;12.90;85.60;;;;;;5018365;28;20100;-74
2023/11/23 17:33:19;;;;;;;0.10;0.10;;;12.90;85.80;;;;;;5019042;28;20058;-74
2023/11/23 17:35:45;;;;;;;0.10;0.10;;;12.80;85.90;;;;;;4997555;28;20081;-73
2023/11/23 17:38:11;;;;;;;0.10;0.10;;;12.80;85.70;;;;;;5002785;28;20029;-77
2023/11/23 17:40:37;;;;;;;0.10;0.10;;;12.80;85.80;;;;;;5011001;28;20076;-74
2023/11/23 17:43:03;;;;;;;0.10;0.10;;;12.80;85.70;;;;;;5008395;28;20018;-78
2023/11/23 17:45:29;;;;;;;0.10;0.10;;;12.70;85.60;;;;;;5009905;28;20113;-77
2023/11/23 17:47:55;;;;;;;0.10;0.10;;;12.80;85.90;;;;;;5007504;28;20058;-77
2023/11/23 17:50:21;;;;;;;0.10;0.10;;;12.80;85.80;;;;;;5010248;28;20026;-78
2023/11/23 17:52:47;;;;;;;0.10;0.10;;;12.80;85.50;;;;;;4989836;28;20018;-75
2023/11/23 17:55:14;;;;;;;0.10;0.10;;;12.70;85.50;;;;;;5013788;28;20109;-79
2023/11/23 17:57:40;;;;;;;0.10;0.10;;;12.70;85.50;;;;;;5009872;28;20385;-79
2023/11/23 18:00:06;;;;;;;0.10;0.10;;;12.80;85.60;;;;;;4996731;28;20029;-78
2023/11/23 18:02:32;;;;;;;0.10;0.10;;;12.70;85.50;;;;;;4993973;28;20025;-78
2023/11/23 18:04:58;;;;;;;0.10;0.10;;;12.80;85.30;;;;;;5011629;28;20638;-75
2023/11/23 18:07:24;;;;;;;0.10;0.10;;;12.80;85.20;;;;;;5000310;28;20018;-81
2023/11/23 18:09:50;;;;;;;0.10;0.10;;;12.80;85.20;;;;;;5018076;28;20044;-77
2023/11/23 18:12:15;;;;;;;0.10;0.10;;;12.80;85.10;;;;;;5017738;28;20149;-76
2023/11/23 18:14:41;;;;;;;0.05;0.05;;;12.80;85.10;;;;;;4989135;28;20049;-82
2023/11/23 18:17:07;;;;;;;0.10;0.10;;;12.80;84.90;;;;;;5018961;28;20022;-78